logo
Rechercher aéroport 
image banner adimage banner adimage banner ad
image banner ad

20CL - Mysterious Valley

Situé à Pope Valley, United States

ICAO - 20CL, IATA -

Données fournies par Airmate  

Information générale

Coordonnées: N38°44'58" W122°22'3"
Élévation : 1410 feet MSL.
Variation magnétique : 16° East
Voir autres Aéroports à California

Données opérationnelles

Special qualification required
Heure actuelle UTC:
Heure actuelle locale:
METAR: KSTS 281253Z AUTO 00000KT 1/4SM FG VV001 11/11 A3001 RMK AO2 SLP154 T01060106
TAF: KSTS 281140Z 2812/2912 00000KT 1/2SM FG VV002 TEMPO 2815/2817 2SM BR OVC003 FM281700 27003KT P6SM SCT250 FM282100 21007KT P6SM SCT250 FM290400 20004KT P6SM SCT250
Voir NOTAMs / SUP AIP / TFR affectant cet aéroport [VIEW]
Fréquences de communication: [VIEW]

Pistes:

Identifiant RWYQFULongueur (ft)Largeur (ft)SurfaceLDA (ft)
14350030GRAVEL
32350030GRAVEL

Coordonnées de l'aéroport

Adresse: Pope Valley United States

Vue satellite de 20CL